Terminal Aerodrome Forecast
Issued by NWS Portland, OR

Home | Current Version | Previous Version | Text Only | Print | Product List | Glossary On
Versions: 1 2 3 4 5 6 7 8 9 10 11 12 13 14 15 16 17 18 19
000
FTUS46 KPQR 250520
TAFAST
TAF
KAST 250520Z 2506/2606 34005KT P6SM BKN080
     FM251000 VRB04KT P6SM SCT080
     FM251700 35007KT P6SM SCT250
     FM252100 34012KT P6SM SKC=

USA.gov is the U.S. government's official web portal to all federal, state and local government web resources and services.